sensor_id;sensor_type;location;lat;lon;timestamp;temperature;humidity
11454;DHT22;5783;55.174;61.310;2023-05-07T00:01:30;24.10;28.20
11454;DHT22;5783;55.174;61.310;2023-05-07T00:04:00;24.10;28.00
11454;DHT22;5783;55.174;61.310;2023-05-07T00:06:31;24.10;28.00
11454;DHT22;5783;55.174;61.310;2023-05-07T00:09:01;24.10;28.00
11454;DHT22;5783;55.174;61.310;2023-05-07T00:11:30;24.10;28.10
11454;DHT22;5783;55.174;61.310;2023-05-07T00:14:00;24.10;28.10
11454;DHT22;5783;55.174;61.310;2023-05-07T00:16:29;24.10;28.20
11454;DHT22;5783;55.174;61.310;2023-05-07T00:18:58;24.00;28.20
11454;DHT22;5783;55.174;61.310;2023-05-07T00:21:27;24.00;28.10
11454;DHT22;5783;55.174;61.310;2023-05-07T00:23:57;24.00;28.10
11454;DHT22;5783;55.174;61.310;2023-05-07T00:26:26;24.00;28.20
11454;DHT22;5783;55.174;61.310;2023-05-07T00:28:55;24.00;28.20
11454;DHT22;5783;55.174;61.310;2023-05-07T00:31:25;24.00;28.10
11454;DHT22;5783;55.174;61.310;2023-05-07T00:33:54;24.00;28.30
11454;DHT22;5783;55.174;61.310;2023-05-07T00:36:23;24.00;28.20
11454;DHT22;5783;55.174;61.310;2023-05-07T00:38:54;24.00;28.30
11454;DHT22;5783;55.174;61.310;2023-05-07T00:41:23;24.00;28.30
11454;DHT22;5783;55.174;61.310;2023-05-07T00:43:52;24.00;28.30
11454;DHT22;5783;55.174;61.310;2023-05-07T00:46:22;24.00;28.30
11454;DHT22;5783;55.174;61.310;2023-05-07T00:48:51;23.90;28.30
11454;DHT22;5783;55.174;61.310;2023-05-07T00:51:21;23.90;28.30
11454;DHT22;5783;55.174;61.310;2023-05-07T00:53:50;23.90;28.30
11454;DHT22;5783;55.174;61.310;2023-05-07T00:56:21;23.90;28.30
11454;DHT22;5783;55.174;61.310;2023-05-07T00:58:50;23.90;28.30
11454;DHT22;5783;55.174;61.310;2023-05-07T01:01:19;23.90;28.40
11454;DHT22;5783;55.174;61.310;2023-05-07T01:03:49;23.90;28.40
11454;DHT22;5783;55.174;61.310;2023-05-07T01:06:19;23.90;28.50
11454;DHT22;5783;55.174;61.310;2023-05-07T01:08:50;23.90;28.50
11454;DHT22;5783;55.174;61.310;2023-05-07T01:11:19;23.90;28.50
11454;DHT22;5783;55.174;61.310;2023-05-07T01:13:49;23.90;28.60
11454;DHT22;5783;55.174;61.310;2023-05-07T01:16:19;23.90;28.80
11454;DHT22;5783;55.174;61.310;2023-05-07T01:18:49;23.90;28.60
11454;DHT22;5783;55.174;61.310;2023-05-07T01:21:18;23.90;28.70
11454;DHT22;5783;55.174;61.310;2023-05-07T01:23:49;23.90;28.70
11454;DHT22;5783;55.174;61.310;2023-05-07T01:26:18;23.80;28.70
11454;DHT22;5783;55.174;61.310;2023-05-07T01:28:48;23.80;28.70
11454;DHT22;5783;55.174;61.310;2023-05-07T01:31:18;23.80;28.80
11454;DHT22;5783;55.174;61.310;2023-05-07T01:33:49;23.80;28.70
11454;DHT22;5783;55.174;61.310;2023-05-07T01:36:22;23.80;28.80
11454;DHT22;5783;55.174;61.310;2023-05-07T01:38:53;23.80;28.80
11454;DHT22;5783;55.174;61.310;2023-05-07T01:41:24;23.80;28.90
11454;DHT22;5783;55.174;61.310;2023-05-07T01:43:54;23.80;28.90
11454;DHT22;5783;55.174;61.310;2023-05-07T01:46:23;23.80;28.90
11454;DHT22;5783;55.174;61.310;2023-05-07T01:48:54;23.80;29.10
11454;DHT22;5783;55.174;61.310;2023-05-07T01:51:23;23.80;29.00
11454;DHT22;5783;55.174;61.310;2023-05-07T01:53:53;23.80;29.00
11454;DHT22;5783;55.174;61.310;2023-05-07T01:56:23;23.80;29.00
11454;DHT22;5783;55.174;61.310;2023-05-07T01:58:52;23.80;29.10
11454;DHT22;5783;55.174;61.310;2023-05-07T02:01:21;23.80;29.10
11454;DHT22;5783;55.174;61.310;2023-05-07T02:03:50;23.80;29.20
11454;DHT22;5783;55.174;61.310;2023-05-07T02:06:20;23.80;29.20
11454;DHT22;5783;55.174;61.310;2023-05-07T02:08:49;23.80;29.30
11454;DHT22;5783;55.174;61.310;2023-05-07T02:11:18;23.80;29.30
11454;DHT22;5783;55.174;61.310;2023-05-07T02:13:48;23.80;29.50
11454;DHT22;5783;55.174;61.310;2023-05-07T02:16:17;23.80;29.50
11454;DHT22;5783;55.174;61.310;2023-05-07T02:18:46;23.80;29.50
11454;DHT22;5783;55.174;61.310;2023-05-07T02:21:15;23.80;29.60
11454;DHT22;5783;55.174;61.310;2023-05-07T02:23:45;23.80;29.70
11454;DHT22;5783;55.174;61.310;2023-05-07T02:26:14;23.80;29.70
11454;DHT22;5783;55.174;61.310;2023-05-07T02:28:43;23.80;29.90
11454;DHT22;5783;55.174;61.310;2023-05-07T02:31:12;23.80;29.90
11454;DHT22;5783;55.174;61.310;2023-05-07T02:33:41;23.80;30.00
11454;DHT22;5783;55.174;61.310;2023-05-07T02:36:12;23.80;30.00
11454;DHT22;5783;55.174;61.310;2023-05-07T02:38:41;23.80;30.00
11454;DHT22;5783;55.174;61.310;2023-05-07T02:41:11;23.80;30.10
11454;DHT22;5783;55.174;61.310;2023-05-07T02:43:40;23.80;30.00
11454;DHT22;5783;55.174;61.310;2023-05-07T02:46:09;23.80;30.00
11454;DHT22;5783;55.174;61.310;2023-05-07T02:48:38;23.80;30.20
11454;DHT22;5783;55.174;61.310;2023-05-07T02:51:08;23.80;30.10
11454;DHT22;5783;55.174;61.310;2023-05-07T02:53:37;23.80;30.00
11454;DHT22;5783;55.174;61.310;2023-05-07T02:56:06;23.80;30.00
11454;DHT22;5783;55.174;61.310;2023-05-07T02:58:35;23.80;30.00
11454;DHT22;5783;55.174;61.310;2023-05-07T03:01:07;23.80;30.00
11454;DHT22;5783;55.174;61.310;2023-05-07T03:03:36;23.80;30.00
11454;DHT22;5783;55.174;61.310;2023-05-07T03:06:05;23.80;30.00
11454;DHT22;5783;55.174;61.310;2023-05-07T03:08:35;23.80;30.00
11454;DHT22;5783;55.174;61.310;2023-05-07T03:11:04;23.90;30.10
11454;DHT22;5783;55.174;61.310;2023-05-07T03:13:33;23.90;30.10
11454;DHT22;5783;55.174;61.310;2023-05-07T03:16:02;23.90;30.20
11454;DHT22;5783;55.174;61.310;2023-05-07T03:18:31;23.90;30.30
11454;DHT22;5783;55.174;61.310;2023-05-07T03:21:01;23.90;30.30
11454;DHT22;5783;55.174;61.310;2023-05-07T03:23:30;23.90;30.40
11454;DHT22;5783;55.174;61.310;2023-05-07T03:25:59;23.90;30.50
11454;DHT22;5783;55.174;61.310;2023-05-07T03:28:28;23.90;30.50
11454;DHT22;5783;55.174;61.310;2023-05-07T03:30:57;23.90;30.50
11454;DHT22;5783;55.174;61.310;2023-05-07T03:33:26;23.90;30.50
11454;DHT22;5783;55.174;61.310;2023-05-07T03:35:55;23.90;30.50
11454;DHT22;5783;55.174;61.310;2023-05-07T03:38:24;23.90;30.50
11454;DHT22;5783;55.174;61.310;2023-05-07T03:40:54;23.90;30.60
11454;DHT22;5783;55.174;61.310;2023-05-07T03:43:23;23.90;30.60
11454;DHT22;5783;55.174;61.310;2023-05-07T03:45:52;23.90;30.60
11454;DHT22;5783;55.174;61.310;2023-05-07T03:48:21;23.90;30.80
11454;DHT22;5783;55.174;61.310;2023-05-07T03:50:50;23.90;30.60
11454;DHT22;5783;55.174;61.310;2023-05-07T03:53:20;24.00;30.70
11454;DHT22;5783;55.174;61.310;2023-05-07T03:55:49;24.00;30.60
11454;DHT22;5783;55.174;61.310;2023-05-07T03:58:18;24.00;30.70
11454;DHT22;5783;55.174;61.310;2023-05-07T04:00:47;24.00;30.70
11454;DHT22;5783;55.174;61.310;2023-05-07T04:03:17;24.00;30.70
11454;DHT22;5783;55.174;61.310;2023-05-07T04:05:46;24.00;30.70
11454;DHT22;5783;55.174;61.310;2023-05-07T04:08:15;24.00;30.80
11454;DHT22;5783;55.174;61.310;2023-05-07T04:10:44;24.00;30.80
11454;DHT22;5783;55.174;61.310;2023-05-07T04:13:13;24.00;30.80
11454;DHT22;5783;55.174;61.310;2023-05-07T04:15:42;24.10;30.70
11454;DHT22;5783;55.174;61.310;2023-05-07T04:18:13;24.10;30.70
11454;DHT22;5783;55.174;61.310;2023-05-07T04:20:42;24.10;30.60
11454;DHT22;5783;55.174;61.310;2023-05-07T04:23:11;24.10;30.60
11454;DHT22;5783;55.174;61.310;2023-05-07T04:25:40;24.10;30.70
11454;DHT22;5783;55.174;61.310;2023-05-07T04:28:09;24.10;30.60
11454;DHT22;5783;55.174;61.310;2023-05-07T04:30:39;24.10;30.70
11454;DHT22;5783;55.174;61.310;2023-05-07T04:33:08;24.10;30.70
11454;DHT22;5783;55.174;61.310;2023-05-07T04:35:38;24.10;30.90
11454;DHT22;5783;55.174;61.310;2023-05-07T04:38:07;24.20;30.80
11454;DHT22;5783;55.174;61.310;2023-05-07T04:40:36;24.20;30.80
11454;DHT22;5783;55.174;61.310;2023-05-07T04:43:05;24.20;30.80
11454;DHT22;5783;55.174;61.310;2023-05-07T04:45:55;24.20;30.70
11454;DHT22;5783;55.174;61.310;2023-05-07T04:48:24;24.20;30.90
11454;DHT22;5783;55.174;61.310;2023-05-07T04:50:53;24.10;30.90
11454;DHT22;5783;55.174;61.310;2023-05-07T04:53:23;24.20;30.50
11454;DHT22;5783;55.174;61.310;2023-05-07T04:56:12;24.20;30.30
11454;DHT22;5783;55.174;61.310;2023-05-07T04:58:41;24.20;30.30
11454;DHT22;5783;55.174;61.310;2023-05-07T05:01:12;24.20;30.20
11454;DHT22;5783;55.174;61.310;2023-05-07T05:03:42;24.20;30.20
11454;DHT22;5783;55.174;61.310;2023-05-07T05:06:11;24.20;30.50
11454;DHT22;5783;55.174;61.310;2023-05-07T05:08:40;24.30;30.60
11454;DHT22;5783;55.174;61.310;2023-05-07T05:11:09;24.40;30.40
11454;DHT22;5783;55.174;61.310;2023-05-07T05:13:38;24.40;30.10
11454;DHT22;5783;55.174;61.310;2023-05-07T05:16:07;24.40;29.90
11454;DHT22;5783;55.174;61.310;2023-05-07T05:18:36;24.40;29.60
11454;DHT22;5783;55.174;61.310;2023-05-07T05:21:06;24.50;29.70
11454;DHT22;5783;55.174;61.310;2023-05-07T05:23:35;24.50;29.70
11454;DHT22;5783;55.174;61.310;2023-05-07T05:26:04;24.50;28.90
11454;DHT22;5783;55.174;61.310;2023-05-07T05:28:33;24.60;28.60
11454;DHT22;5783;55.174;61.310;2023-05-07T05:31:02;24.50;28.60
11454;DHT22;5783;55.174;61.310;2023-05-07T05:33:31;24.60;28.30
11454;DHT22;5783;55.174;61.310;2023-05-07T05:36:00;24.60;28.50
11454;DHT22;5783;55.174;61.310;2023-05-07T05:38:29;24.60;28.90
11454;DHT22;5783;55.174;61.310;2023-05-07T05:40:59;24.60;28.00
11454;DHT22;5783;55.174;61.310;2023-05-07T05:43:28;24.50;28.00
11454;DHT22;5783;55.174;61.310;2023-05-07T05:45:57;24.50;28.10
11454;DHT22;5783;55.174;61.310;2023-05-07T05:48:28;24.50;28.20
11454;DHT22;5783;55.174;61.310;2023-05-07T05:50:57;24.50;28.30
11454;DHT22;5783;55.174;61.310;2023-05-07T05:53:27;24.50;27.80
11454;DHT22;5783;55.174;61.310;2023-05-07T05:55:56;24.50;27.70
11454;DHT22;5783;55.174;61.310;2023-05-07T05:58:25;24.50;27.90
11454;DHT22;5783;55.174;61.310;2023-05-07T06:00:54;24.50;27.70
11454;DHT22;5783;55.174;61.310;2023-05-07T06:03:24;24.50;27.70
11454;DHT22;5783;55.174;61.310;2023-05-07T06:05:54;24.50;27.60
11454;DHT22;5783;55.174;61.310;2023-05-07T06:08:23;24.50;27.70
11454;DHT22;5783;55.174;61.310;2023-05-07T06:10:52;24.50;27.20
11454;DHT22;5783;55.174;61.310;2023-05-07T06:13:22;24.50;27.50
11454;DHT22;5783;55.174;61.310;2023-05-07T06:15:51;24.50;27.70
11454;DHT22;5783;55.174;61.310;2023-05-07T06:18:20;24.60;27.80
11454;DHT22;5783;55.174;61.310;2023-05-07T06:20:49;24.60;28.10
11454;DHT22;5783;55.174;61.310;2023-05-07T06:23:18;24.60;27.80
11454;DHT22;5783;55.174;61.310;2023-05-07T06:25:50;24.70;27.90
11454;DHT22;5783;55.174;61.310;2023-05-07T06:28:20;24.70;27.80
11454;DHT22;5783;55.174;61.310;2023-05-07T06:30:49;24.70;27.50
11454;DHT22;5783;55.174;61.310;2023-05-07T06:33:18;24.70;26.90
11454;DHT22;5783;55.174;61.310;2023-05-07T06:35:48;24.70;27.00
11454;DHT22;5783;55.174;61.310;2023-05-07T06:38:17;24.70;27.10
11454;DHT22;5783;55.174;61.310;2023-05-07T06:40:48;24.70;27.10
11454;DHT22;5783;55.174;61.310;2023-05-07T06:43:18;24.80;27.20
11454;DHT22;5783;55.174;61.310;2023-05-07T06:45:47;24.80;26.50
11454;DHT22;5783;55.174;61.310;2023-05-07T06:48:16;24.80;26.90
11454;DHT22;5783;55.174;61.310;2023-05-07T06:50:45;24.80;27.10
11454;DHT22;5783;55.174;61.310;2023-05-07T06:53:14;24.80;27.10
11454;DHT22;5783;55.174;61.310;2023-05-07T06:55:43;24.80;27.00
11454;DHT22;5783;55.174;61.310;2023-05-07T06:58:12;24.80;27.00
11454;DHT22;5783;55.174;61.310;2023-05-07T07:00:42;24.80;26.90
11454;DHT22;5783;55.174;61.310;2023-05-07T07:03:12;24.80;27.20
11454;DHT22;5783;55.174;61.310;2023-05-07T07:05:42;24.90;27.30
11454;DHT22;5783;55.174;61.310;2023-05-07T07:08:11;24.90;27.60
11454;DHT22;5783;55.174;61.310;2023-05-07T07:10:41;24.90;27.90
11454;DHT22;5783;55.174;61.310;2023-05-07T07:13:10;24.90;27.30
11454;DHT22;5783;55.174;61.310;2023-05-07T07:15:40;24.90;27.00
11454;DHT22;5783;55.174;61.310;2023-05-07T07:18:09;24.90;27.20
11454;DHT22;5783;55.174;61.310;2023-05-07T07:20:38;24.90;27.20
11454;DHT22;5783;55.174;61.310;2023-05-07T07:23:07;24.90;27.00
11454;DHT22;5783;55.174;61.310;2023-05-07T07:25:36;24.90;27.10
11454;DHT22;5783;55.174;61.310;2023-05-07T07:28:06;24.90;26.80
11454;DHT22;5783;55.174;61.310;2023-05-07T07:30:35;25.00;25.70
11454;DHT22;5783;55.174;61.310;2023-05-07T07:33:04;25.00;26.60
11454;DHT22;5783;55.174;61.310;2023-05-07T07:35:33;24.90;26.30
11454;DHT22;5783;55.174;61.310;2023-05-07T07:38:02;25.00;25.90
11454;DHT22;5783;55.174;61.310;2023-05-07T07:40:33;25.00;25.60
11454;DHT22;5783;55.174;61.310;2023-05-07T07:43:02;25.00;26.00
11454;DHT22;5783;55.174;61.310;2023-05-07T07:45:32;25.00;26.10
11454;DHT22;5783;55.174;61.310;2023-05-07T07:48:02;24.90;25.80
11454;DHT22;5783;55.174;61.310;2023-05-07T07:50:31;24.90;25.60
11454;DHT22;5783;55.174;61.310;2023-05-07T07:53:00;25.00;26.10
11454;DHT22;5783;55.174;61.310;2023-05-07T07:55:29;25.00;25.50
11454;DHT22;5783;55.174;61.310;2023-05-07T07:57:58;25.00;25.70
11454;DHT22;5783;55.174;61.310;2023-05-07T08:00:27;25.00;26.20
11454;DHT22;5783;55.174;61.310;2023-05-07T08:02:57;24.90;26.10
11454;DHT22;5783;55.174;61.310;2023-05-07T08:05:27;25.00;26.10
11454;DHT22;5783;55.174;61.310;2023-05-07T08:07:57;25.00;26.10
11454;DHT22;5783;55.174;61.310;2023-05-07T08:10:26;25.00;26.10
11454;DHT22;5783;55.174;61.310;2023-05-07T08:12:55;25.00;26.00
11454;DHT22;5783;55.174;61.310;2023-05-07T08:15:24;25.00;25.70
11454;DHT22;5783;55.174;61.310;2023-05-07T08:17:53;25.00;25.70
11454;DHT22;5783;55.174;61.310;2023-05-07T08:20:24;25.00;25.70
11454;DHT22;5783;55.174;61.310;2023-05-07T08:22:53;25.00;25.70
11454;DHT22;5783;55.174;61.310;2023-05-07T08:25:22;25.00;25.70
11454;DHT22;5783;55.174;61.310;2023-05-07T08:27:51;25.10;25.80
11454;DHT22;5783;55.174;61.310;2023-05-07T08:30:20;25.00;25.70
11454;DHT22;5783;55.174;61.310;2023-05-07T08:32:50;25.10;25.60
11454;DHT22;5783;55.174;61.310;2023-05-07T08:35:19;25.10;25.60
11454;DHT22;5783;55.174;61.310;2023-05-07T08:37:48;25.10;25.40
11454;DHT22;5783;55.174;61.310;2023-05-07T08:40:17;25.10;25.30
11454;DHT22;5783;55.174;61.310;2023-05-07T08:42:48;25.10;25.20
11454;DHT22;5783;55.174;61.310;2023-05-07T08:45:19;25.10;25.20
11454;DHT22;5783;55.174;61.310;2023-05-07T08:47:51;25.10;25.40
11454;DHT22;5783;55.174;61.310;2023-05-07T08:50:21;25.20;25.50
11454;DHT22;5783;55.174;61.310;2023-05-07T08:52:52;25.10;25.40
11454;DHT22;5783;55.174;61.310;2023-05-07T08:55:23;25.10;25.70
11454;DHT22;5783;55.174;61.310;2023-05-07T08:57:53;25.20;25.80
11454;DHT22;5783;55.174;61.310;2023-05-07T09:00:22;25.20;25.90
11454;DHT22;5783;55.174;61.310;2023-05-07T09:02:53;25.20;25.90
11454;DHT22;5783;55.174;61.310;2023-05-07T09:05:22;25.20;26.70
11454;DHT22;5783;55.174;61.310;2023-05-07T09:07:51;25.20;26.80
11454;DHT22;5783;55.174;61.310;2023-05-07T09:10:22;25.20;26.80
11454;DHT22;5783;55.174;61.310;2023-05-07T09:12:51;25.20;26.70
11454;DHT22;5783;55.174;61.310;2023-05-07T09:15:20;25.20;26.80
11454;DHT22;5783;55.174;61.310;2023-05-07T09:17:49;25.20;26.80
11454;DHT22;5783;55.174;61.310;2023-05-07T09:20:19;25.20;26.20
11454;DHT22;5783;55.174;61.310;2023-05-07T09:22:49;25.30;26.60
11454;DHT22;5783;55.174;61.310;2023-05-07T09:25:27;25.30;26.50
11454;DHT22;5783;55.174;61.310;2023-05-07T09:27:51;25.20;26.40
11454;DHT22;5783;55.174;61.310;2023-05-07T09:30:20;25.20;26.70
11454;DHT22;5783;55.174;61.310;2023-05-07T09:32:49;25.30;26.40
11454;DHT22;5783;55.174;61.310;2023-05-07T09:35:18;25.30;26.30
11454;DHT22;5783;55.174;61.310;2023-05-07T09:38:08;25.30;26.20
11454;DHT22;5783;55.174;61.310;2023-05-07T09:40:37;25.30;26.30
11454;DHT22;5783;55.174;61.310;2023-05-07T09:43:26;25.30;26.30
11454;DHT22;5783;55.174;61.310;2023-05-07T09:45:55;25.30;26.10
11454;DHT22;5783;55.174;61.310;2023-05-07T09:48:26;25.30;26.00
11454;DHT22;5783;55.174;61.310;2023-05-07T09:51:47;25.30;25.90
11454;DHT22;5783;55.174;61.310;2023-05-07T09:53:46;25.40;25.80
11454;DHT22;5783;55.174;61.310;2023-05-07T09:56:16;25.30;25.70
11454;DHT22;5783;55.174;61.310;2023-05-07T09:58:48;25.30;25.60
11454;DHT22;5783;55.174;61.310;2023-05-07T10:01:18;25.40;25.60
11454;DHT22;5783;55.174;61.310;2023-05-07T10:03:50;25.40;25.40
11454;DHT22;5783;55.174;61.310;2023-05-07T10:06:39;25.40;25.30
11454;DHT22;5783;55.174;61.310;2023-05-07T10:09:10;25.40;25.30
11454;DHT22;5783;55.174;61.310;2023-05-07T10:11:39;25.40;25.40
11454;DHT22;5783;55.174;61.310;2023-05-07T10:14:10;25.40;25.50
11454;DHT22;5783;55.174;61.310;2023-05-07T10:16:40;25.40;25.40
11454;DHT22;5783;55.174;61.310;2023-05-07T10:19:10;25.40;25.70
11454;DHT22;5783;55.174;61.310;2023-05-07T10:22:00;25.40;26.10
11454;DHT22;5783;55.174;61.310;2023-05-07T10:27:21;25.50;25.70
11454;DHT22;5783;55.174;61.310;2023-05-07T10:33:01;25.50;25.50
11454;DHT22;5783;55.174;61.310;2023-05-07T10:38:25;25.50;25.40
11454;DHT22;5783;55.174;61.310;2023-05-07T10:40:54;25.50;25.30
11454;DHT22;5783;55.174;61.310;2023-05-07T10:43:23;25.50;25.20
11454;DHT22;5783;55.174;61.310;2023-05-07T10:51:35;25.60;26.00
11454;DHT22;5783;55.174;61.310;2023-05-07T10:54:23;25.60;28.10
11454;DHT22;5783;55.174;61.310;2023-05-07T10:56:53;25.60;28.50
11454;DHT22;5783;55.174;61.310;2023-05-07T10:59:43;25.60;30.30
11454;DHT22;5783;55.174;61.310;2023-05-07T11:02:12;25.60;30.30
11454;DHT22;5783;55.174;61.310;2023-05-07T11:04:42;25.60;32.10
11454;DHT22;5783;55.174;61.310;2023-05-07T11:07:30;25.60;31.80
11454;DHT22;5783;55.174;61.310;2023-05-07T11:10:01;25.60;32.00
11454;DHT22;5783;55.174;61.310;2023-05-07T11:12:52;25.60;32.30
11454;DHT22;5783;55.174;61.310;2023-05-07T11:15:42;25.50;33.10
11454;DHT22;5783;55.174;61.310;2023-05-07T11:18:13;25.50;33.10
11454;DHT22;5783;55.174;61.310;2023-05-07T11:21:02;25.50;32.80
11454;DHT22;5783;55.174;61.310;2023-05-07T11:26:23;25.30;32.90
11454;DHT22;5783;55.174;61.310;2023-05-07T11:28:53;25.20;32.90
11454;DHT22;5783;55.174;61.310;2023-05-07T11:34:13;25.20;32.30
11454;DHT22;5783;55.174;61.310;2023-05-07T11:36:43;25.20;32.40
11454;DHT22;5783;55.174;61.310;2023-05-07T11:39:32;25.20;32.30
11454;DHT22;5783;55.174;61.310;2023-05-07T11:42:02;25.10;32.10
11454;DHT22;5783;55.174;61.310;2023-05-07T11:44:51;24.90;31.50
11454;DHT22;5783;55.174;61.310;2023-05-07T11:47:21;24.80;32.30
11454;DHT22;5783;55.174;61.310;2023-05-07T11:49:52;24.70;32.40
11454;DHT22;5783;55.174;61.310;2023-05-07T11:52:23;24.50;32.30
11454;DHT22;5783;55.174;61.310;2023-05-07T11:55:12;24.40;32.40
11454;DHT22;5783;55.174;61.310;2023-05-07T11:57:43;24.40;32.40
11454;DHT22;5783;55.174;61.310;2023-05-07T12:00:15;24.30;32.50
11454;DHT22;5783;55.174;61.310;2023-05-07T12:02:45;24.20;32.30
11454;DHT22;5783;55.174;61.310;2023-05-07T12:05:14;24.10;32.20
11454;DHT22;5783;55.174;61.310;2023-05-07T12:07:43;24.10;32.20
11454;DHT22;5783;55.174;61.310;2023-05-07T12:10:13;24.10;32.20
11454;DHT22;5783;55.174;61.310;2023-05-07T12:12:45;24.10;31.90
11454;DHT22;5783;55.174;61.310;2023-05-07T12:18:02;24.10;31.70
11454;DHT22;5783;55.174;61.310;2023-05-07T12:20:32;24.10;31.50
11454;DHT22;5783;55.174;61.310;2023-05-07T12:23:02;24.20;31.30
11454;DHT22;5783;55.174;61.310;2023-05-07T12:26:07;24.10;30.90
11454;DHT22;5783;55.174;61.310;2023-05-07T12:28:03;24.10;30.80
11454;DHT22;5783;55.174;61.310;2023-05-07T12:33:42;24.10;30.50
11454;DHT22;5783;55.174;61.310;2023-05-07T12:36:13;24.20;30.40
11454;DHT22;5783;55.174;61.310;2023-05-07T12:38:42;24.10;30.10
11454;DHT22;5783;55.174;61.310;2023-05-07T12:41:11;24.10;30.00
11454;DHT22;5783;55.174;61.310;2023-05-07T12:46:31;24.00;29.80
11454;DHT22;5783;55.174;61.310;2023-05-07T12:49:00;24.00;29.70
11454;DHT22;5783;55.174;61.310;2023-05-07T12:51:29;24.00;29.80
11454;DHT22;5783;55.174;61.310;2023-05-07T12:53:58;23.90;29.70
11454;DHT22;5783;55.174;61.310;2023-05-07T12:56:30;23.90;29.80
11454;DHT22;5783;55.174;61.310;2023-05-07T12:58:59;23.90;29.80
11454;DHT22;5783;55.174;61.310;2023-05-07T13:01:47;23.70;29.80
11454;DHT22;5783;55.174;61.310;2023-05-07T13:04:17;23.60;30.00
11454;DHT22;5783;55.174;61.310;2023-05-07T13:06:47;23.40;30.00
11454;DHT22;5783;55.174;61.310;2023-05-07T13:09:16;23.40;30.20
11454;DHT22;5783;55.174;61.310;2023-05-07T13:11:46;23.30;30.40
11454;DHT22;5783;55.174;61.310;2023-05-07T13:14:17;23.20;30.60
11454;DHT22;5783;55.174;61.310;2023-05-07T13:16:49;23.20;30.60
11454;DHT22;5783;55.174;61.310;2023-05-07T13:19:18;23.00;30.60
11454;DHT22;5783;55.174;61.310;2023-05-07T13:21:47;23.00;30.90
11454;DHT22;5783;55.174;61.310;2023-05-07T13:24:17;23.00;31.00
11454;DHT22;5783;55.174;61.310;2023-05-07T13:26:46;23.00;31.00
11454;DHT22;5783;55.174;61.310;2023-05-07T13:29:15;23.00;31.00
11454;DHT22;5783;55.174;61.310;2023-05-07T13:31:44;23.00;31.10
11454;DHT22;5783;55.174;61.310;2023-05-07T13:34:13;23.00;31.10
11454;DHT22;5783;55.174;61.310;2023-05-07T13:36:42;23.00;31.10
11454;DHT22;5783;55.174;61.310;2023-05-07T13:39:12;23.00;31.20
11454;DHT22;5783;55.174;61.310;2023-05-07T13:41:41;23.00;31.10
11454;DHT22;5783;55.174;61.310;2023-05-07T13:44:10;23.00;31.10
11454;DHT22;5783;55.174;61.310;2023-05-07T13:46:39;22.90;31.10
11454;DHT22;5783;55.174;61.310;2023-05-07T13:49:08;22.80;31.10
11454;DHT22;5783;55.174;61.310;2023-05-07T13:51:39;22.80;31.20
11454;DHT22;5783;55.174;61.310;2023-05-07T13:54:08;22.70;31.20
11454;DHT22;5783;55.174;61.310;2023-05-07T13:56:37;22.70;31.40
11454;DHT22;5783;55.174;61.310;2023-05-07T13:59:06;22.60;31.40
11454;DHT22;5783;55.174;61.310;2023-05-07T14:01:35;22.60;31.40
11454;DHT22;5783;55.174;61.310;2023-05-07T14:04:05;22.60;31.50
11454;DHT22;5783;55.174;61.310;2023-05-07T14:06:34;22.50;31.60
11454;DHT22;5783;55.174;61.310;2023-05-07T14:09:03;22.50;31.80
11454;DHT22;5783;55.174;61.310;2023-05-07T14:11:32;22.40;31.90
11454;DHT22;5783;55.174;61.310;2023-05-07T14:14:02;22.40;32.00
11454;DHT22;5783;55.174;61.310;2023-05-07T14:16:31;22.30;32.10
11454;DHT22;5783;55.174;61.310;2023-05-07T14:19:00;22.30;32.40
11454;DHT22;5783;55.174;61.310;2023-05-07T14:21:29;22.30;32.30
11454;DHT22;5783;55.174;61.310;2023-05-07T14:23:58;22.20;32.30
11454;DHT22;5783;55.174;61.310;2023-05-07T14:26:27;22.20;32.30
11454;DHT22;5783;55.174;61.310;2023-05-07T14:28:57;22.20;32.30
11454;DHT22;5783;55.174;61.310;2023-05-07T14:31:26;22.10;32.40
11454;DHT22;5783;55.174;61.310;2023-05-07T14:33:55;22.10;32.40
11454;DHT22;5783;55.174;61.310;2023-05-07T14:36:25;22.00;32.50
11454;DHT22;5783;55.174;61.310;2023-05-07T14:38:56;22.00;32.50
11454;DHT22;5783;55.174;61.310;2023-05-07T14:41:26;22.00;32.30
11454;DHT22;5783;55.174;61.310;2023-05-07T14:43:55;22.10;32.10
11454;DHT22;5783;55.174;61.310;2023-05-07T14:46:25;22.10;32.00
11454;DHT22;5783;55.174;61.310;2023-05-07T14:48:54;22.00;31.90
11454;DHT22;5783;55.174;61.310;2023-05-07T14:51:23;22.00;31.80
11454;DHT22;5783;55.174;61.310;2023-05-07T14:53:54;22.00;31.70
11454;DHT22;5783;55.174;61.310;2023-05-07T14:56:23;22.00;31.70
11454;DHT22;5783;55.174;61.310;2023-05-07T14:58:52;22.20;31.50
11454;DHT22;5783;55.174;61.310;2023-05-07T15:01:21;22.30;31.20
11454;DHT22;5783;55.174;61.310;2023-05-07T15:03:51;22.40;30.90
11454;DHT22;5783;55.174;61.310;2023-05-07T15:06:20;22.60;30.60
11454;DHT22;5783;55.174;61.310;2023-05-07T15:08:50;22.60;30.20
11454;DHT22;5783;55.174;61.310;2023-05-07T15:11:19;22.70;30.20
11454;DHT22;5783;55.174;61.310;2023-05-07T15:13:49;22.70;30.10
11454;DHT22;5783;55.174;61.310;2023-05-07T15:16:19;22.80;30.00
11454;DHT22;5783;55.174;61.310;2023-05-07T15:18:48;22.80;30.00
11454;DHT22;5783;55.174;61.310;2023-05-07T15:21:18;22.80;30.00
11454;DHT22;5783;55.174;61.310;2023-05-07T15:23:47;22.80;30.00
11454;DHT22;5783;55.174;61.310;2023-05-07T15:26:16;22.80;30.00
11454;DHT22;5783;55.174;61.310;2023-05-07T15:28:45;22.80;30.00
11454;DHT22;5783;55.174;61.310;2023-05-07T15:31:15;22.80;29.90
11454;DHT22;5783;55.174;61.310;2023-05-07T15:33:44;22.80;29.80
11454;DHT22;5783;55.174;61.310;2023-05-07T15:36:14;22.80;29.80
11454;DHT22;5783;55.174;61.310;2023-05-07T15:38:43;22.80;29.70
11454;DHT22;5783;55.174;61.310;2023-05-07T15:41:12;22.80;29.60
11454;DHT22;5783;55.174;61.310;2023-05-07T15:44:01;22.80;29.40
11454;DHT22;5783;55.174;61.310;2023-05-07T15:46:30;22.80;29.30
11454;DHT22;5783;55.174;61.310;2023-05-07T15:51:49;22.70;29.20
11454;DHT22;5783;55.174;61.310;2023-05-07T15:54:20;22.70;29.20
11454;DHT22;5783;55.174;61.310;2023-05-07T15:56:50;22.60;29.10
11454;DHT22;5783;55.174;61.310;2023-05-07T15:59:19;22.60;29.00
11454;DHT22;5783;55.174;61.310;2023-05-07T16:01:49;22.60;29.10
11454;DHT22;5783;55.174;61.310;2023-05-07T16:04:19;22.60;28.80
11454;DHT22;5783;55.174;61.310;2023-05-07T16:06:48;22.60;29.10
11454;DHT22;5783;55.174;61.310;2023-05-07T16:09:17;22.60;28.90
11454;DHT22;5783;55.174;61.310;2023-05-07T16:11:47;22.60;28.80
11454;DHT22;5783;55.174;61.310;2023-05-07T16:14:16;22.60;28.80
11454;DHT22;5783;55.174;61.310;2023-05-07T16:16:45;22.60;28.90
11454;DHT22;5783;55.174;61.310;2023-05-07T16:19:15;22.60;28.80
11454;DHT22;5783;55.174;61.310;2023-05-07T16:21:44;22.60;28.60